createdAt,value
2022-10-24T00:01:20.604Z,14.20
2022-10-24T00:02:41.920Z,10.38
2022-10-24T00:05:25.111Z,12.39
2022-10-24T00:06:46.330Z,11.16
2022-10-24T00:08:07.540Z,13.75
2022-10-24T00:09:28.751Z,12.31
2022-10-24T00:10:50.135Z,12.16
2022-10-24T00:12:11.077Z,13.39
2022-10-24T00:13:32.362Z,12.54
2022-10-24T00:14:53.352Z,13.36
2022-10-24T00:16:14.909Z,14.27
2022-10-24T00:17:36.207Z,14.63
2022-10-24T00:18:57.195Z,13.22
2022-10-24T00:20:18.362Z,14.79
2022-10-24T00:21:39.372Z,12.46
2022-10-24T00:23:00.620Z,14.78
2022-10-24T00:24:21.785Z,19.06
2022-10-24T00:25:43.039Z,13.48
2022-10-24T00:27:04.510Z,13.53
2022-10-24T00:28:25.479Z,12.11
2022-10-24T00:29:46.434Z,11.46
2022-10-24T00:31:08.603Z,10.60
2022-10-24T00:32:29.858Z,11.73
2022-10-24T00:33:51.215Z,11.41
2022-10-24T00:35:12.403Z,12.49
2022-10-24T00:36:33.723Z,12.36
2022-10-24T00:37:55.062Z,12.55
2022-10-24T00:39:16.348Z,12.98
2022-10-24T00:40:37.330Z,13.91
2022-10-24T00:41:58.263Z,10.92
2022-10-24T00:43:23.800Z,12.49
2022-10-24T00:44:45.389Z,11.15
2022-10-24T00:46:06.695Z,10.03
2022-10-24T00:47:27.656Z,12.51
2022-10-24T00:50:12.609Z,12.98
2022-10-24T00:51:34.098Z,12.70
2022-10-24T00:52:55.416Z,14.04
2022-10-24T00:54:16.460Z,12.58
2022-10-24T00:55:38.131Z,10.98
2022-10-24T00:58:16.226Z,11.43
2022-10-24T00:59:37.308Z,11.74
2022-10-24T01:00:59.207Z,13.47
2022-10-24T01:02:20.581Z,15.28
2022-10-24T01:03:41.745Z,12.51
2022-10-24T01:05:04.148Z,19.82
2022-10-24T01:06:48.277Z,24.66
2022-10-24T01:08:22.037Z,15.08
2022-10-24T01:09:55.737Z,17.97
2022-10-24T01:11:29.676Z,13.23
2022-10-24T01:14:22.559Z,16.58
2022-10-24T01:15:51.049Z,13.67
2022-10-24T01:17:38.749Z,12.69
2022-10-24T01:19:06.464Z,15.04
2022-10-24T01:20:53.756Z,14.51
2022-10-24T01:22:27.188Z,14.23
2022-10-24T01:24:22.755Z,15.59
2022-10-24T01:27:22.487Z,12.63
2022-10-24T01:29:15.168Z,13.76
2022-10-24T01:30:42.688Z,12.99
2022-10-24T01:32:13.543Z,15.13
2022-10-24T01:33:37.758Z,14.65
2022-10-24T01:35:20.354Z,11.72
2022-10-24T01:38:13.205Z,10.54
2022-10-24T01:39:37.799Z,13.94
2022-10-24T01:41:02.296Z,15.93
2022-10-24T01:42:23.542Z,15.31
2022-10-24T01:43:48.466Z,15.78
2022-10-24T01:45:10.520Z,15.07
2022-10-24T01:46:36.528Z,15.06
2022-10-24T01:47:57.764Z,16.73
2022-10-24T01:49:20.063Z,15.05
2022-10-24T01:50:42.117Z,12.36
2022-10-24T01:52:06.284Z,15.81
2022-10-24T01:53:27.531Z,14.98
2022-10-24T01:54:49.023Z,14.02
2022-10-24T01:56:10.556Z,12.74
2022-10-24T01:57:32.574Z,15.86
2022-10-24T02:00:18.293Z,14.56
2022-10-24T02:01:39.737Z,11.84
2022-10-24T02:03:13.287Z,13.56
2022-10-24T02:06:00.133Z,12.32
2022-10-24T02:07:21.307Z,13.48
2022-10-24T02:08:45.172Z,13.03
2022-10-24T02:10:13.583Z,10.98
2022-10-24T02:11:35.144Z,12.96
2022-10-24T02:12:59.982Z,11.49
2022-10-24T02:14:27.258Z,13.09
2022-10-24T02:15:50.727Z,11.78
2022-10-24T02:17:12.070Z,9.61
2022-10-24T02:18:33.000Z,12.41
2022-10-24T02:19:54.032Z,8.73
2022-10-24T02:21:45.277Z,10.04
2022-10-24T02:23:12.697Z,9.76
2022-10-24T02:24:49.491Z,10.37
2022-10-24T02:26:13.349Z,9.86
2022-10-24T02:28:50.849Z,10.21
2022-10-24T02:30:19.765Z,10.51
2022-10-24T02:31:44.451Z,9.34
2022-10-24T02:33:05.707Z,11.23
2022-10-24T02:34:30.209Z,9.31
2022-10-24T02:35:58.545Z,8.93
2022-10-24T02:37:19.717Z,9.61
2022-10-24T02:38:41.566Z,9.95
2022-10-24T02:40:03.650Z,9.05
2022-10-24T02:41:27.838Z,10.42
2022-10-24T02:42:50.686Z,8.82
2022-10-24T02:45:33.775Z,9.14
2022-10-24T02:46:56.346Z,10.99
2022-10-24T02:48:18.862Z,9.82
2022-10-24T02:49:39.996Z,9.04
2022-10-24T02:51:02.041Z,11.32
2022-10-24T02:52:23.262Z,11.83
2022-10-24T02:53:44.657Z,13.58
2022-10-24T02:55:06.549Z,9.38
2022-10-24T02:56:27.808Z,9.75
2022-10-24T02:57:48.917Z,9.57
2022-10-24T02:59:10.464Z,11.97
2022-10-24T03:00:31.717Z,11.01
2022-10-24T03:01:53.751Z,9.89
2022-10-24T03:03:15.006Z,14.41
2022-10-24T03:04:36.131Z,11.72
2022-10-24T03:05:58.256Z,11.29
2022-10-24T03:07:19.543Z,12.38
2022-10-24T03:08:40.782Z,10.52
2022-10-24T03:10:02.454Z,13.73
2022-10-24T03:11:23.613Z,13.28
2022-10-24T03:12:44.848Z,16.33
2022-10-24T03:14:06.139Z,16.98
2022-10-24T03:15:27.085Z,15.43
2022-10-24T03:16:48.080Z,16.49
2022-10-24T03:18:09.110Z,16.27
2022-10-24T03:19:30.611Z,14.46
2022-10-24T03:20:53.603Z,15.74
2022-10-24T03:22:14.570Z,17.49
2022-10-24T03:23:35.692Z,14.86
2022-10-24T03:24:56.640Z,13.03
2022-10-24T03:26:18.099Z,13.42
2022-10-24T03:27:39.616Z,13.61
2022-10-24T03:29:00.898Z,12.79
2022-10-24T03:30:22.597Z,14.19
2022-10-24T03:31:43.764Z,14.19
2022-10-24T03:33:05.385Z,13.69
2022-10-24T03:34:26.666Z,13.42
2022-10-24T03:35:53.514Z,17.72
2022-10-24T03:37:14.570Z,16.92
2022-10-24T03:39:45.294Z,13.06
2022-10-24T03:41:07.052Z,14.77
2022-10-24T03:42:28.147Z,16.15
2022-10-24T03:43:49.319Z,16.75
2022-10-24T03:45:10.748Z,13.62
2022-10-24T03:46:32.431Z,14.16
2022-10-24T03:47:53.845Z,15.30
2022-10-24T03:49:14.963Z,14.18
2022-10-24T03:50:36.437Z,14.71
2022-10-24T03:51:58.147Z,14.05
2022-10-24T03:53:19.315Z,17.36
2022-10-24T03:54:40.788Z,17.18
2022-10-24T03:56:01.847Z,12.61
2022-10-24T03:57:23.146Z,12.75
2022-10-24T03:58:44.582Z,14.75
2022-10-24T04:00:07.655Z,12.78
2022-10-24T04:01:28.749Z,13.76
2022-10-24T04:02:50.081Z,19.30
2022-10-24T04:04:11.537Z,21.90
2022-10-24T04:05:33.225Z,20.96
2022-10-24T04:06:54.831Z,17.22
2022-10-24T04:08:16.072Z,18.43
2022-10-24T04:09:37.001Z,23.33
2022-10-24T04:10:58.024Z,18.97
2022-10-24T04:12:19.466Z,20.17
2022-10-24T04:13:40.783Z,23.16
2022-10-24T04:15:04.762Z,16.88
2022-10-24T04:16:25.417Z,18.80
2022-10-24T04:17:47.500Z,21.36
2022-10-24T04:19:08.794Z,14.97
2022-10-24T04:20:30.234Z,19.42
2022-10-24T04:21:51.652Z,23.69
2022-10-24T04:23:12.916Z,21.55
2022-10-24T04:24:34.365Z,16.73
2022-10-24T04:25:56.165Z,14.86
2022-10-24T04:27:17.459Z,21.31
2022-10-24T04:28:39.008Z,19.41
2022-10-24T04:30:00.475Z,28.46
2022-10-24T04:31:23.670Z,20.09
2022-10-24T04:32:45.035Z,24.22
2022-10-24T04:34:06.525Z,21.69
2022-10-24T04:35:27.526Z,21.91
2022-10-24T04:36:49.199Z,21.82
2022-10-24T04:38:10.313Z,25.41
2022-10-24T04:40:47.554Z,30.49
2022-10-24T04:42:08.821Z,23.32
2022-10-24T04:43:29.905Z,21.89
2022-10-24T04:44:50.953Z,25.94
2022-10-24T04:46:12.816Z,29.52
2022-10-24T04:47:34.319Z,22.33
2022-10-24T04:48:55.837Z,25.13
2022-10-24T04:50:17.065Z,21.60
2022-10-24T04:51:38.346Z,26.63
2022-10-24T04:52:59.370Z,24.15
2022-10-24T04:54:20.889Z,29.43
2022-10-24T04:55:42.266Z,25.53
2022-10-24T04:57:03.177Z,24.74
2022-10-24T04:58:24.135Z,20.88
2022-10-24T04:59:45.483Z,20.17
2022-10-24T05:01:06.942Z,26.39
2022-10-24T05:02:28.587Z,26.38
2022-10-24T05:03:49.674Z,24.46
2022-10-24T05:05:10.987Z,20.71
2022-10-24T05:06:32.270Z,29.85
2022-10-24T05:07:53.259Z,22.17
2022-10-24T05:09:14.811Z,20.98
2022-10-24T05:10:35.807Z,23.57
2022-10-24T05:11:56.890Z,19.16
2022-10-24T05:13:18.193Z,22.41
2022-10-24T05:14:39.652Z,22.59
2022-10-24T05:17:13.635Z,27.04
2022-10-24T05:18:34.808Z,23.70
2022-10-24T05:19:56.318Z,25.62
2022-10-24T05:21:17.390Z,24.37
2022-10-24T05:22:39.170Z,28.68
2022-10-24T05:24:00.687Z,25.30
2022-10-24T05:25:22.009Z,25.74
2022-10-24T05:26:43.196Z,31.46
2022-10-24T05:28:04.728Z,26.00
2022-10-24T05:29:26.185Z,32.11
2022-10-24T05:30:47.580Z,28.05
2022-10-24T05:32:08.812Z,27.97
2022-10-24T05:33:30.379Z,22.71
2022-10-24T05:34:51.774Z,22.62
2022-10-24T05:36:13.542Z,30.15
2022-10-24T05:37:35.359Z,22.52
2022-10-24T05:38:56.576Z,24.36
2022-10-24T05:40:18.240Z,22.76
2022-10-24T05:41:43.376Z,20.09
2022-10-24T05:44:23.467Z,17.30
2022-10-24T05:45:46.385Z,15.38
2022-10-24T05:48:28.802Z,21.63
2022-10-24T05:49:50.175Z,19.02
2022-10-24T05:51:11.337Z,20.46
2022-10-24T05:52:32.810Z,18.16
2022-10-24T05:53:53.940Z,23.61
2022-10-24T05:55:18.270Z,20.26
2022-10-24T05:56:39.519Z,20.39
2022-10-24T05:58:01.183Z,17.19
2022-10-24T05:59:22.561Z,20.16
2022-10-24T06:00:44.351Z,17.65
2022-10-24T06:02:05.733Z,19.43
2022-10-24T06:03:27.140Z,15.24
2022-10-24T06:04:48.936Z,17.87
2022-10-24T06:06:11.113Z,19.39
2022-10-24T06:07:32.679Z,17.86
2022-10-24T06:08:53.957Z,14.78
2022-10-24T06:10:15.765Z,20.07
2022-10-24T06:11:37.176Z,21.60
2022-10-24T06:12:58.625Z,22.89
2022-10-24T06:14:19.811Z,22.27
2022-10-24T06:15:42.566Z,21.82
2022-10-24T06:17:04.228Z,20.86
2022-10-24T06:18:25.490Z,21.34
2022-10-24T06:21:08.761Z,18.97
2022-10-24T06:22:30.541Z,21.54
2022-10-24T06:23:52.071Z,20.86
2022-10-24T06:25:13.020Z,23.31
2022-10-24T06:26:34.511Z,56.88
2022-10-24T06:27:55.659Z,70.05
2022-10-24T06:29:17.046Z,39.62
2022-10-24T06:30:38.892Z,28.13
2022-10-24T06:32:00.238Z,26.23
2022-10-24T06:33:21.733Z,22.62
2022-10-24T06:34:43.237Z,45.83
2022-10-24T06:36:05.067Z,39.42
2022-10-24T06:37:26.337Z,25.06
2022-10-24T06:38:47.802Z,31.73
2022-10-24T06:40:09.491Z,27.83
2022-10-24T06:41:31.248Z,27.05
2022-10-24T06:42:52.561Z,35.23
2022-10-24T06:44:13.822Z,28.11
2022-10-24T06:45:37.122Z,27.77
2022-10-24T06:46:58.463Z,22.13
2022-10-24T06:48:19.766Z,22.63
2022-10-24T06:49:41.536Z,28.37
2022-10-24T06:51:03.156Z,26.98
2022-10-24T06:52:24.166Z,28.29
2022-10-24T06:53:45.987Z,22.02
2022-10-24T06:55:08.121Z,23.81
2022-10-24T06:56:29.818Z,28.10
2022-10-24T06:57:52.596Z,26.01
2022-10-24T06:59:15.487Z,29.09
2022-10-24T07:00:37.380Z,32.74
2022-10-24T07:02:01.849Z,26.14
2022-10-24T07:03:21.855Z,38.74
2022-10-24T07:04:43.527Z,34.97
2022-10-24T07:07:19.611Z,31.76
2022-10-24T07:08:40.677Z,27.98
2022-10-24T07:10:03.235Z,27.43
2022-10-24T07:11:24.852Z,30.56
2022-10-24T07:12:46.486Z,30.64
2022-10-24T07:14:09.103Z,33.76
2022-10-24T07:15:30.658Z,38.73
2022-10-24T07:16:54.524Z,38.22
2022-10-24T07:18:15.645Z,38.22
2022-10-24T07:19:37.586Z,44.83
2022-10-24T07:22:14.566Z,41.96
2022-10-24T07:23:36.331Z,37.35
2022-10-24T07:24:57.790Z,62.43
2022-10-24T07:26:19.816Z,43.77
2022-10-24T07:27:41.746Z,50.24
2022-10-24T07:30:25.195Z,47.37
2022-10-24T07:31:46.686Z,57.31
2022-10-24T07:33:07.713Z,63.59
2022-10-24T07:34:29.042Z,53.57
2022-10-24T07:35:51.591Z,69.16
2022-10-24T07:37:14.118Z,47.36
2022-10-24T07:38:35.260Z,42.83
2022-10-24T07:39:56.718Z,54.56
2022-10-24T07:41:19.767Z,78.07
2022-10-24T07:42:45.482Z,40.67
2022-10-24T07:45:24.194Z,49.43
2022-10-24T07:46:45.577Z,65.87
2022-10-24T07:48:08.274Z,42.06
2022-10-24T07:49:32.992Z,38.41
2022-10-24T07:52:09.038Z,34.00
2022-10-24T07:53:32.208Z,26.59
2022-10-24T07:54:53.728Z,30.98
2022-10-24T07:56:19.800Z,31.68
2022-10-24T07:57:40.868Z,25.92
2022-10-24T07:59:09.069Z,26.93
2022-10-24T08:00:28.459Z,30.06
2022-10-24T08:01:53.044Z,37.73
2022-10-24T08:03:14.313Z,31.77
2022-10-24T08:04:35.897Z,30.64
2022-10-24T08:06:02.380Z,36.21
2022-10-24T08:07:24.077Z,35.64
2022-10-24T08:08:45.403Z,36.77
2022-10-24T08:10:10.870Z,34.12
2022-10-24T08:11:33.039Z,38.31
2022-10-24T08:12:55.647Z,32.76
2022-10-24T08:14:17.961Z,36.73
2022-10-24T08:15:39.823Z,32.68
2022-10-24T08:17:03.601Z,31.27
2022-10-24T08:18:30.448Z,33.38
2022-10-24T08:19:53.451Z,46.44
2022-10-24T08:21:15.332Z,32.86
2022-10-24T08:22:38.613Z,36.77
2022-10-24T08:24:00.084Z,26.93
2022-10-24T08:25:22.817Z,33.61
2022-10-24T08:26:44.327Z,35.35
2022-10-24T08:28:08.240Z,39.22
2022-10-24T08:29:29.776Z,68.87
2022-10-24T08:32:13.895Z,39.16
2022-10-24T08:33:35.070Z,53.71
2022-10-24T08:34:58.827Z,25.27
2022-10-24T08:36:31.058Z,22.44
2022-10-24T08:37:53.260Z,21.48
2022-10-24T08:39:16.010Z,25.61
2022-10-24T08:40:39.285Z,25.79
2022-10-24T08:43:39.825Z,23.08
2022-10-24T08:45:02.101Z,21.86
2022-10-24T08:46:49.206Z,23.47
2022-10-24T08:48:13.558Z,22.63
2022-10-24T08:51:52.800Z,15.17
2022-10-24T08:53:29.588Z,26.29
2022-10-24T08:54:51.555Z,30.12
2022-10-24T08:56:12.931Z,23.63
2022-10-24T08:58:57.441Z,14.82
2022-10-24T09:00:25.236Z,15.06
2022-10-24T09:01:51.170Z,21.54
2022-10-24T09:03:31.259Z,26.31
2022-10-24T09:06:19.856Z,24.21
2022-10-24T09:07:42.762Z,11.48
2022-10-24T09:09:13.700Z,11.68
2022-10-24T09:10:45.201Z,16.29
2022-10-24T09:12:10.448Z,49.77
2022-10-24T09:13:33.655Z,24.08
2022-10-24T09:14:57.551Z,14.88
2022-10-24T09:16:22.624Z,20.43
2022-10-24T09:17:45.995Z,14.59
2022-10-24T09:19:19.101Z,11.90
2022-10-24T09:20:41.597Z,11.28
2022-10-24T09:22:07.473Z,13.87
2022-10-24T09:23:28.758Z,11.73
2022-10-24T09:24:53.151Z,18.68
2022-10-24T09:26:20.371Z,12.46
2022-10-24T09:27:42.059Z,13.21
2022-10-24T09:29:03.489Z,16.05
2022-10-24T09:30:31.468Z,13.61
2022-10-24T09:31:51.680Z,16.82
2022-10-24T09:33:28.097Z,9.69
2022-10-24T09:34:50.086Z,12.28
2022-10-24T09:36:14.234Z,11.87
2022-10-24T09:37:42.793Z,13.08
2022-10-24T09:40:23.975Z,10.43
2022-10-24T09:41:45.519Z,12.45
2022-10-24T09:43:17.558Z,13.57
2022-10-24T09:44:39.389Z,9.81
2022-10-24T09:46:06.096Z,8.71
2022-10-24T09:47:28.243Z,13.64
2022-10-24T09:48:56.131Z,16.26
2022-10-24T09:50:27.897Z,15.33
2022-10-24T09:51:50.342Z,11.21
2022-10-24T09:53:24.420Z,11.64
2022-10-24T09:54:45.668Z,15.79
2022-10-24T10:07:51.659Z,14.47
2022-10-24T10:21:13.646Z,12.64
2022-10-24T10:22:35.115Z,13.45
2022-10-24T10:26:43.617Z,15.84
2022-10-24T10:28:08.733Z,11.25
2022-10-24T10:29:29.991Z,9.03
2022-10-24T10:30:54.835Z,10.24
2022-10-24T10:32:19.133Z,11.15
2022-10-24T10:33:55.459Z,7.44
2022-10-24T10:35:29.643Z,8.62
2022-10-24T10:37:28.337Z,8.28
2022-10-24T10:39:18.042Z,7.93
2022-10-24T10:41:06.832Z,7.76
2022-10-24T10:44:23.392Z,9.44
2022-10-24T10:45:48.238Z,11.10
2022-10-24T10:47:27.522Z,11.86
2022-10-24T10:48:56.467Z,21.01
2022-10-24T10:50:33.054Z,19.36
2022-10-24T10:51:57.775Z,8.35
2022-10-24T10:55:28.326Z,8.59
2022-10-24T10:57:08.000Z,7.43
2022-10-24T11:00:17.316Z,6.07
2022-10-24T11:01:46.045Z,6.69
2022-10-24T11:03:28.367Z,11.25
2022-10-24T11:08:16.005Z,5.11
2022-10-24T11:09:49.319Z,11.52
2022-10-24T11:12:41.025Z,4.22
2022-10-24T11:15:47.249Z,6.39
2022-10-24T11:17:18.202Z,5.80
2022-10-24T11:18:43.493Z,6.43
2022-10-24T11:21:33.282Z,6.11
2022-10-24T11:24:21.224Z,8.73
2022-10-24T11:25:45.891Z,8.89
2022-10-24T11:28:26.330Z,8.51
2022-10-24T11:31:24.935Z,12.67
2022-10-24T11:32:52.215Z,4.96
2022-10-24T11:37:26.464Z,8.58
2022-10-24T11:40:18.349Z,8.30
2022-10-24T11:41:48.766Z,5.86
2022-10-24T11:43:37.002Z,7.13
2022-10-24T11:45:04.847Z,6.44
2022-10-24T11:46:37.082Z,7.45
2022-10-24T11:49:36.266Z,7.67
2022-10-24T11:51:04.530Z,4.61
2022-10-24T11:52:30.377Z,6.45
2022-10-24T11:55:27.632Z,4.21
2022-10-24T11:58:02.952Z,6.67
2022-10-24T11:59:24.649Z,7.08
2022-10-24T12:01:12.306Z,5.01
2022-10-24T12:02:52.469Z,7.69
2022-10-24T12:04:54.452Z,5.82
2022-10-24T12:06:46.964Z,4.12
2022-10-24T12:08:18.152Z,4.06
2022-10-24T12:12:10.274Z,4.56
2022-10-24T12:13:41.162Z,6.27
2022-10-24T12:15:29.088Z,5.03
2022-10-24T12:16:57.797Z,4.69
2022-10-24T12:18:42.281Z,5.39
2022-10-24T12:20:06.382Z,8.95
2022-10-24T12:21:30.332Z,5.63
2022-10-24T12:22:51.894Z,7.30
2022-10-24T12:24:21.688Z,6.21
2022-10-24T12:25:47.304Z,5.49
2022-10-24T12:28:26.316Z,5.46
2022-10-24T12:31:23.859Z,4.85
2022-10-24T12:33:00.840Z,7.66
2022-10-24T12:34:31.700Z,4.50
2022-10-24T12:35:56.468Z,3.94
2022-10-24T12:37:25.560Z,6.69
2022-10-24T12:39:02.209Z,6.52
2022-10-24T12:42:21.585Z,8.96
2022-10-24T12:43:43.010Z,5.31
2022-10-24T12:45:13.784Z,5.42
2022-10-24T12:46:41.541Z,8.69
2022-10-24T12:49:38.929Z,7.36
2022-10-24T12:51:07.275Z,5.33
2022-10-24T12:52:35.694Z,12.32
2022-10-24T12:54:12.849Z,7.69
2022-10-24T12:55:44.657Z,5.48
2022-10-24T12:57:14.162Z,8.98
2022-10-24T12:58:40.440Z,6.68
2022-10-24T13:00:02.945Z,7.71
2022-10-24T13:01:39.261Z,6.88
2022-10-24T13:03:06.512Z,6.67
2022-10-24T13:04:34.968Z,4.98
2022-10-24T13:06:07.850Z,5.53
2022-10-24T13:07:50.959Z,12.47
2022-10-24T13:09:33.258Z,11.28
2022-10-24T13:12:45.681Z,10.64
2022-10-24T13:14:28.819Z,8.72
2022-10-24T13:15:55.603Z,6.46
2022-10-24T13:17:48.582Z,6.50
2022-10-24T13:19:13.698Z,7.44
2022-10-24T13:21:57.195Z,7.15
2022-10-24T13:23:23.422Z,7.88
2022-10-24T13:24:47.451Z,11.36
2022-10-24T13:28:23.296Z,10.86
2022-10-24T13:29:50.499Z,15.71
2022-10-24T13:31:18.401Z,10.78
2022-10-24T13:32:41.254Z,7.66
2022-10-24T13:34:23.996Z,8.62
2022-10-24T13:35:48.341Z,13.49
2022-10-24T13:37:27.035Z,8.72
2022-10-24T13:38:58.567Z,10.51
2022-10-24T13:40:34.787Z,11.35
2022-10-24T13:42:02.768Z,7.68
2022-10-24T13:43:24.808Z,9.56
2022-10-24T13:44:46.968Z,7.58
2022-10-24T13:46:13.195Z,8.15
2022-10-24T13:47:38.053Z,13.11
2022-10-24T13:48:59.529Z,7.93
2022-10-24T13:51:38.776Z,9.37
2022-10-24T13:53:03.064Z,8.41
2022-10-24T13:54:30.250Z,6.77
2022-10-24T13:55:53.555Z,7.82
2022-10-24T13:57:34.117Z,9.15
2022-10-24T13:58:55.556Z,8.44
2022-10-24T14:00:20.066Z,8.53
2022-10-24T14:01:41.695Z,8.99
2022-10-24T14:05:01.840Z,13.95
2022-10-24T14:06:30.708Z,18.62
2022-10-24T14:07:58.672Z,12.07
2022-10-24T14:09:26.510Z,9.24
2022-10-24T14:10:54.873Z,15.19
2022-10-24T14:12:18.539Z,10.83
2022-10-24T14:14:02.615Z,12.46
2022-10-24T14:15:27.327Z,18.11
2022-10-24T14:16:52.998Z,16.56
2022-10-24T14:18:14.447Z,13.27
2022-10-24T14:21:34.506Z,19.33
2022-10-24T14:23:03.306Z,10.75
2022-10-24T14:26:02.443Z,13.09
2022-10-24T14:27:23.938Z,13.70
2022-10-24T14:28:55.771Z,21.02
2022-10-24T14:30:22.000Z,18.37
2022-10-24T14:31:51.848Z,23.86
2022-10-24T14:33:19.163Z,16.39
2022-10-24T14:34:46.989Z,21.42
2022-10-24T14:36:09.505Z,18.48
2022-10-24T14:37:33.810Z,21.27
2022-10-24T14:39:02.668Z,18.62
2022-10-24T14:40:24.364Z,17.67
2022-10-24T14:41:45.606Z,24.48
2022-10-24T14:43:13.143Z,16.63
2022-10-24T14:44:37.389Z,14.52
2022-10-24T14:46:13.315Z,18.93
2022-10-24T14:47:35.897Z,22.52
2022-10-24T14:49:16.924Z,30.24
2022-10-24T14:50:40.501Z,26.35
2022-10-24T14:52:10.322Z,37.60
2022-10-24T14:53:32.446Z,23.19
2022-10-24T14:56:32.087Z,43.69
2022-10-24T14:57:53.338Z,27.49
2022-10-24T14:59:31.322Z,34.68
2022-10-24T15:00:54.974Z,27.61
2022-10-24T15:02:25.454Z,30.96
2022-10-24T15:03:51.215Z,22.37
2022-10-24T15:05:23.271Z,19.10
2022-10-24T15:06:44.654Z,21.91
2022-10-24T15:08:22.291Z,30.56
2022-10-24T15:09:50.769Z,31.93
2022-10-24T15:11:17.443Z,43.05
2022-10-24T15:12:40.537Z,22.13
2022-10-24T15:14:07.244Z,32.29
2022-10-24T15:18:42.487Z,18.95
2022-10-24T15:20:04.786Z,25.11
2022-10-24T15:21:27.133Z,19.43
2022-10-24T15:22:53.758Z,19.16
2022-10-24T15:25:39.253Z,18.36
2022-10-24T15:27:10.815Z,22.82
2022-10-24T15:28:39.953Z,29.81
2022-10-24T15:30:01.352Z,21.48
2022-10-24T15:31:24.597Z,20.80
2022-10-24T15:32:46.247Z,24.75
2022-10-24T15:34:07.792Z,30.98
2022-10-24T15:35:29.188Z,25.40
2022-10-24T15:36:51.250Z,24.84
2022-10-24T15:38:14.915Z,23.24
2022-10-24T15:39:36.454Z,25.09
2022-10-24T15:40:57.585Z,18.10
2022-10-24T15:42:21.622Z,21.02
2022-10-24T15:43:42.260Z,23.74
2022-10-24T15:45:06.612Z,27.27
2022-10-24T15:46:28.159Z,21.15
2022-10-24T15:47:49.902Z,25.44
2022-10-24T15:49:12.985Z,20.78
2022-10-24T15:50:34.828Z,15.51
2022-10-24T15:51:57.371Z,20.06
2022-10-24T15:53:20.254Z,26.37
2022-10-24T15:54:41.666Z,26.07
2022-10-24T15:56:03.326Z,26.74
2022-10-24T15:57:24.458Z,20.63
2022-10-24T15:58:45.693Z,21.64
2022-10-24T16:00:08.450Z,15.98
2022-10-24T16:02:42.037Z,21.86
2022-10-24T16:04:03.575Z,18.17
2022-10-24T16:05:26.750Z,19.95
2022-10-24T16:09:23.717Z,25.28
2022-10-24T16:10:47.270Z,22.19
2022-10-24T16:12:11.095Z,26.69
2022-10-24T16:13:32.288Z,22.76
2022-10-24T16:14:53.696Z,25.98
2022-10-24T16:16:16.818Z,23.27
2022-10-24T16:17:38.108Z,23.12
2022-10-24T16:18:59.062Z,22.35
2022-10-24T16:20:20.795Z,24.95
2022-10-24T16:21:42.829Z,21.14
2022-10-24T16:23:03.835Z,21.52
2022-10-24T16:24:25.850Z,24.82
2022-10-24T16:25:46.795Z,24.75
2022-10-24T16:27:10.296Z,24.90
2022-10-24T16:28:31.644Z,26.31
2022-10-24T16:29:52.707Z,26.75
2022-10-24T16:32:29.842Z,22.75
2022-10-24T16:33:51.294Z,25.67
2022-10-24T16:36:37.295Z,21.15
2022-10-24T16:37:59.327Z,20.19
2022-10-24T16:39:20.615Z,20.54
2022-10-24T16:40:43.687Z,20.81
2022-10-24T16:42:04.889Z,21.41
2022-10-24T16:43:26.849Z,24.16
2022-10-24T16:44:48.021Z,22.13
2022-10-24T16:46:14.036Z,22.85
2022-10-24T16:47:35.476Z,19.91
2022-10-24T16:48:56.965Z,22.33
2022-10-24T16:50:22.514Z,21.68
2022-10-24T16:51:44.790Z,21.13
2022-10-24T16:53:06.506Z,23.69
2022-10-24T16:54:27.658Z,21.40
2022-10-24T16:55:51.152Z,21.59
2022-10-24T16:57:12.560Z,25.52
2022-10-24T16:58:34.276Z,20.58
2022-10-24T16:59:55.584Z,33.24
2022-10-24T17:01:17.120Z,29.59
2022-10-24T17:02:38.677Z,26.62
2022-10-24T17:04:01.223Z,27.18
2022-10-24T17:05:23.895Z,24.05
2022-10-24T17:06:45.564Z,23.38
2022-10-24T17:08:06.698Z,22.83
2022-10-24T17:09:27.844Z,24.06
2022-10-24T17:10:50.251Z,23.78
2022-10-24T17:12:12.634Z,21.79
2022-10-24T17:13:33.780Z,23.87
2022-10-24T17:14:55.312Z,23.67
2022-10-24T17:16:17.200Z,23.44
2022-10-24T17:17:38.222Z,22.43
2022-10-24T17:19:14.833Z,25.19
2022-10-24T17:20:22.902Z,24.04
2022-10-24T17:21:46.299Z,24.53
2022-10-24T17:24:29.812Z,24.07
2022-10-24T17:25:55.149Z,22.41
2022-10-24T17:27:16.465Z,26.30
2022-10-24T17:28:37.894Z,26.22
2022-10-24T17:29:59.333Z,27.53
2022-10-24T17:31:20.746Z,24.70
2022-10-24T17:32:42.124Z,27.02
2022-10-24T17:34:03.895Z,29.32
2022-10-24T17:35:25.297Z,29.24
2022-10-24T17:38:35.741Z,25.36
2022-10-24T17:40:03.269Z,25.12
2022-10-24T17:41:26.306Z,27.38
2022-10-24T17:42:48.647Z,23.94
2022-10-24T17:44:17.076Z,23.21
2022-10-24T17:45:38.930Z,24.28
2022-10-24T17:47:00.105Z,33.18
2022-10-24T17:48:21.758Z,24.12
2022-10-24T17:49:42.868Z,28.79
2022-10-24T17:51:04.302Z,24.69
2022-10-24T17:52:25.351Z,26.11
2022-10-24T17:53:46.778Z,25.38
2022-10-24T17:55:41.365Z,23.34
2022-10-24T17:56:46.074Z,24.61
2022-10-24T17:58:07.592Z,26.81
2022-10-24T17:59:28.920Z,30.17
2022-10-24T18:00:51.752Z,27.14
2022-10-24T18:03:34.610Z,24.23
2022-10-24T18:04:56.397Z,23.31
2022-10-24T18:06:17.616Z,21.76
2022-10-24T18:07:39.270Z,25.06
2022-10-24T18:09:00.515Z,21.66
2022-10-24T18:10:22.035Z,21.96
2022-10-24T18:11:43.061Z,19.91
2022-10-24T18:13:04.599Z,23.12
2022-10-24T18:14:26.197Z,24.12
2022-10-24T18:15:47.478Z,25.78
2022-10-24T18:17:08.922Z,18.94
2022-10-24T18:18:30.396Z,23.76
2022-10-24T18:19:52.824Z,20.86
2022-10-24T18:21:21.201Z,22.60
2022-10-24T18:22:42.877Z,19.63
2022-10-24T18:24:05.762Z,20.46
2022-10-24T18:26:48.007Z,19.12
2022-10-24T18:28:09.173Z,18.00
2022-10-24T18:29:30.757Z,19.64
2022-10-24T18:30:54.123Z,19.30
2022-10-24T18:32:15.887Z,16.69
2022-10-24T18:33:37.735Z,20.78
2022-10-24T18:34:59.175Z,17.44
2022-10-24T18:36:25.319Z,15.76
2022-10-24T18:37:46.355Z,18.53
2022-10-24T18:39:29.973Z,17.55
2022-10-24T18:40:54.536Z,17.62
2022-10-24T18:42:33.441Z,21.31
2022-10-24T18:43:55.277Z,16.92
2022-10-24T18:45:30.922Z,17.07
2022-10-24T18:46:59.926Z,20.85
2022-10-24T18:48:21.589Z,18.72
2022-10-24T18:49:43.031Z,16.19
2022-10-24T18:51:11.130Z,15.69
2022-10-24T18:52:41.855Z,18.13
2022-10-24T18:54:04.941Z,18.61
2022-10-24T18:55:33.811Z,16.97
2022-10-24T18:57:02.137Z,16.33
2022-10-24T18:58:23.290Z,17.81
2022-10-24T18:59:44.815Z,15.47
2022-10-24T19:01:08.798Z,16.72
2022-10-24T19:02:39.701Z,17.34
2022-10-24T19:04:02.294Z,17.55
2022-10-24T19:05:26.392Z,15.11
2022-10-24T19:06:48.983Z,16.31
2022-10-24T19:09:33.227Z,12.11
2022-10-24T19:10:56.732Z,15.88
2022-10-24T19:12:18.159Z,18.28
2022-10-24T19:13:39.796Z,16.96
2022-10-24T19:15:01.544Z,18.39
2022-10-24T19:16:24.717Z,17.96
2022-10-24T19:17:46.952Z,17.86
2022-10-24T19:19:08.042Z,17.50
2022-10-24T19:20:29.954Z,17.96
2022-10-24T19:21:51.696Z,17.74
2022-10-24T19:23:13.676Z,16.11
2022-10-24T19:24:34.989Z,18.07
2022-10-24T19:25:56.034Z,15.73
2022-10-24T19:27:17.807Z,16.17
2022-10-24T19:28:39.702Z,15.62
2022-10-24T19:30:01.023Z,15.00
2022-10-24T19:31:22.577Z,17.06
2022-10-24T19:32:43.893Z,16.26
2022-10-24T19:34:05.666Z,13.46
2022-10-24T19:35:27.278Z,16.35
2022-10-24T19:36:48.774Z,15.69
2022-10-24T19:38:10.160Z,16.98
2022-10-24T19:39:33.826Z,15.12
2022-10-24T19:40:55.325Z,14.71
2022-10-24T19:42:16.281Z,16.13
2022-10-24T19:43:37.841Z,17.58
2022-10-24T19:44:59.340Z,16.49
2022-10-24T19:46:20.945Z,15.93
2022-10-24T19:47:42.361Z,18.12
2022-10-24T19:49:03.343Z,15.91
2022-10-24T19:50:24.767Z,19.56
2022-10-24T19:51:46.621Z,16.28
2022-10-24T19:53:07.674Z,16.60
2022-10-24T19:54:28.966Z,18.07
2022-10-24T19:55:52.033Z,14.94
2022-10-24T19:58:34.222Z,17.29
2022-10-24T19:59:55.520Z,13.67
2022-10-24T20:01:18.239Z,14.37
2022-10-24T20:04:00.121Z,15.16
2022-10-24T20:05:21.565Z,13.92
2022-10-24T20:06:42.854Z,17.76
2022-10-24T20:08:03.860Z,14.66
2022-10-24T20:09:25.330Z,15.34
2022-10-24T20:12:06.751Z,15.12
2022-10-24T20:13:28.444Z,15.08
2022-10-24T20:14:49.943Z,16.06
2022-10-24T20:16:12.203Z,15.34
2022-10-24T20:17:34.613Z,16.87
2022-10-24T20:18:55.891Z,18.12
2022-10-24T20:20:19.163Z,15.61
2022-10-24T20:21:40.274Z,15.66
2022-10-24T20:23:01.457Z,18.53
2022-10-24T20:24:22.528Z,17.03
2022-10-24T20:25:44.368Z,17.33
2022-10-24T20:28:28.372Z,16.33